Neosho, MO

12:24 PM CST on February 14, 2016 (GMT -0600)
APRSWXNET | | Change Station
CLOSE
Current Station
Personal Weather Station
Location: Neosho, MO
Elevation: 1023 ft
Nearby Weather Stations

Elev 1023 ft 36.87 °N, 94.37 °W | Updated 33 minutes ago

Mostly Cloudy
Mostly Cloudy
40 °F
Feels Like 40 °F
N
0
Wind Variable Wind from South
Gusts 0.0 mph

Today
High -- | Low -- °F
--% Chance of Precip.
Yesterday
High -- | Low -- °F
Precip. -- in
Pressure 29.95 in
Visibility 10.0 miles
Clouds Scattered Clouds 600 ft
Overcast 1200 ft
Windchill 40 °F
Dew Point 37 °F
Humidity 90%
Rainfall in
Snow Depth Not available.
7:07 AM 5:56 PM
Waxing Crescent, 44% visible
METAR KHFJ 141815Z AUTO 14008KT 10SM SCT006 OVC012 00/00 A2995 RMK AO2
Pressure 29.95 in
Visibility 10.0 miles
Clouds Scattered Clouds 600 ft
Overcast 1200 ft
Windchill 40 °F
Dew Point 37 °F
Humidity 90%
Rainfall in
Snow Depth Not available.
7:07 AM 5:56 PM
Waxing Crescent, 44% visible
METAR KHFJ 141815Z AUTO 14008KT 10SM SCT006 OVC012 00/00 A2995 RMK AO2

10-Day Weather Forecast

Almanac

Astronomy

Feb. 14, 2016 Rise Set
Actual Time
Civil Twilight
Nautical Twilight
Astronomical Twilight
Moon
Length of Visible Light
Length of Day
Tomorrow will be .
, % of the Moon is Illuminated

Today's Extremes

State Highs State Lows

Community

WunderPhotos

Upload Photos

1,892,869 photos uploaded!

WunderBlog® & News

Nearby

Air Quality

  Air Quality AQ Index Pollutant
Not available.

Snow Depth

Station Depth Elevation

Earthquake Activity

City Distance Mag. Time & Date
Minimum magnitude displayed is 2.5.

Coastal Water Temperatures

Place Temperature

Stations

Nearby Weather Stations

Station Location Temp. Windchill Dew Point Humidity Wind Precip. Elev Updated Type
                   

Watches & Warnings

There are currently no watches in effect.